sensor_id;sensor_type;location;lat;lon;timestamp;temperature;humidity
34815;DHT22;21030;53.912;15.214;2022-10-17T00:01:36;37.20;26.00
34815;DHT22;21030;53.912;15.214;2022-10-17T00:04:06;37.30;25.90
34815;DHT22;21030;53.912;15.214;2022-10-17T00:06:35;37.30;25.90
34815;DHT22;21030;53.912;15.214;2022-10-17T00:09:05;37.30;25.80
34815;DHT22;21030;53.912;15.214;2022-10-17T00:11:34;37.30;25.80
34815;DHT22;21030;53.912;15.214;2022-10-17T00:14:03;37.30;25.90
34815;DHT22;21030;53.912;15.214;2022-10-17T00:16:34;37.30;25.90
34815;DHT22;21030;53.912;15.214;2022-10-17T00:19:07;37.40;26.00
34815;DHT22;21030;53.912;15.214;2022-10-17T00:21:36;37.40;25.90
34815;DHT22;21030;53.912;15.214;2022-10-17T00:24:05;37.20;25.90
34815;DHT22;21030;53.912;15.214;2022-10-17T00:26:34;37.10;26.20
34815;DHT22;21030;53.912;15.214;2022-10-17T00:29:04;37.10;26.50
34815;DHT22;21030;53.912;15.214;2022-10-17T00:31:34;37.10;26.10
34815;DHT22;21030;53.912;15.214;2022-10-17T00:34:03;37.20;26.00
34815;DHT22;21030;53.912;15.214;2022-10-17T00:36:33;37.20;26.10
34815;DHT22;21030;53.912;15.214;2022-10-17T00:39:03;37.10;26.00
34815;DHT22;21030;53.912;15.214;2022-10-17T00:41:33;37.10;25.90
34815;DHT22;21030;53.912;15.214;2022-10-17T00:44:04;37.10;25.80
34815;DHT22;21030;53.912;15.214;2022-10-17T00:46:37;37.10;25.90
34815;DHT22;21030;53.912;15.214;2022-10-17T00:49:10;37.20;25.80
34815;DHT22;21030;53.912;15.214;2022-10-17T00:51:55;37.10;25.60
34815;DHT22;21030;53.912;15.214;2022-10-17T00:54:31;37.10;25.70
34815;DHT22;21030;53.912;15.214;2022-10-17T00:57:01;37.20;25.70
34815;DHT22;21030;53.912;15.214;2022-10-17T00:59:37;37.10;25.70
34815;DHT22;21030;53.912;15.214;2022-10-17T01:02:10;37.00;25.60
34815;DHT22;21030;53.912;15.214;2022-10-17T01:04:43;37.00;25.80
34815;DHT22;21030;53.912;15.214;2022-10-17T01:07:11;37.00;25.70
34815;DHT22;21030;53.912;15.214;2022-10-17T01:09:41;37.10;25.60
34815;DHT22;21030;53.912;15.214;2022-10-17T01:12:19;37.00;25.60
34815;DHT22;21030;53.912;15.214;2022-10-17T01:16:08;36.90;25.60
34815;DHT22;21030;53.912;15.214;2022-10-17T01:32:46;37.10;25.60
34815;DHT22;21030;53.912;15.214;2022-10-17T01:38:09;37.20;25.40
34815;DHT22;21030;53.912;15.214;2022-10-17T01:43:58;37.00;25.40
34815;DHT22;21030;53.912;15.214;2022-10-17T01:46:36;36.90;25.10
34815;DHT22;21030;53.912;15.214;2022-10-17T01:49:08;36.90;25.40
34815;DHT22;21030;53.912;15.214;2022-10-17T01:54:20;37.00;25.50
34815;DHT22;21030;53.912;15.214;2022-10-17T01:56:58;37.00;25.50
34815;DHT22;21030;53.912;15.214;2022-10-17T01:59:45;37.00;25.40
34815;DHT22;21030;53.912;15.214;2022-10-17T02:02:16;37.10;25.30
34815;DHT22;21030;53.912;15.214;2022-10-17T02:04:47;37.10;25.20
34815;DHT22;21030;53.912;15.214;2022-10-17T02:07:20;37.10;25.20
34815;DHT22;21030;53.912;15.214;2022-10-17T02:09:49;37.20;25.20
34815;DHT22;21030;53.912;15.214;2022-10-17T02:18:09;36.80;25.50
34815;DHT22;21030;53.912;15.214;2022-10-17T02:21:32;36.90;25.60
34815;DHT22;21030;53.912;15.214;2022-10-17T02:24:23;37.00;25.60
34815;DHT22;21030;53.912;15.214;2022-10-17T02:26:58;37.10;25.50
34815;DHT22;21030;53.912;15.214;2022-10-17T02:29:54;37.10;25.40
34815;DHT22;21030;53.912;15.214;2022-10-17T02:32:39;37.00;25.40
34815;DHT22;21030;53.912;15.214;2022-10-17T02:35:17;36.90;25.50
34815;DHT22;21030;53.912;15.214;2022-10-17T02:37:52;37.00;25.60
34815;DHT22;21030;53.912;15.214;2022-10-17T02:40:24;37.20;25.50
34815;DHT22;21030;53.912;15.214;2022-10-17T02:42:55;37.30;25.40
34815;DHT22;21030;53.912;15.214;2022-10-17T02:45:28;37.30;25.30
34815;DHT22;21030;53.912;15.214;2022-10-17T02:48:10;37.20;25.30
34815;DHT22;21030;53.912;15.214;2022-10-17T02:51:05;37.20;25.30
34815;DHT22;21030;53.912;15.214;2022-10-17T02:56:32;37.20;25.30
34815;DHT22;21030;53.912;15.214;2022-10-17T02:59:04;37.10;25.40
34815;DHT22;21030;53.912;15.214;2022-10-17T03:01:35;37.10;25.70
34815;DHT22;21030;53.912;15.214;2022-10-17T03:04:12;37.00;25.60
34815;DHT22;21030;53.912;15.214;2022-10-17T03:06:41;37.10;25.60
34815;DHT22;21030;53.912;15.214;2022-10-17T03:09:10;37.00;25.60
34815;DHT22;21030;53.912;15.214;2022-10-17T03:11:39;37.00;25.70
34815;DHT22;21030;53.912;15.214;2022-10-17T03:14:08;36.90;25.80
34815;DHT22;21030;53.912;15.214;2022-10-17T03:16:37;36.90;25.80
34815;DHT22;21030;53.912;15.214;2022-10-17T03:19:06;36.80;26.40
34815;DHT22;21030;53.912;15.214;2022-10-17T03:21:36;37.00;25.80
34815;DHT22;21030;53.912;15.214;2022-10-17T03:24:05;36.90;25.80
34815;DHT22;21030;53.912;15.214;2022-10-17T03:26:34;37.00;26.30
34815;DHT22;21030;53.912;15.214;2022-10-17T03:29:02;36.80;25.70
34815;DHT22;21030;53.912;15.214;2022-10-17T03:31:31;36.80;25.80
34815;DHT22;21030;53.912;15.214;2022-10-17T03:34:01;36.90;25.80
34815;DHT22;21030;53.912;15.214;2022-10-17T03:36:30;36.90;25.80
34815;DHT22;21030;53.912;15.214;2022-10-17T03:38:58;36.90;25.90
34815;DHT22;21030;53.912;15.214;2022-10-17T03:41:27;36.90;25.90
34815;DHT22;21030;53.912;15.214;2022-10-17T03:43:55;37.00;26.00
34815;DHT22;21030;53.912;15.214;2022-10-17T03:46:24;37.00;25.90
34815;DHT22;21030;53.912;15.214;2022-10-17T03:48:52;37.10;25.80
34815;DHT22;21030;53.912;15.214;2022-10-17T03:51:21;37.10;25.80
34815;DHT22;21030;53.912;15.214;2022-10-17T03:53:51;36.90;25.80
34815;DHT22;21030;53.912;15.214;2022-10-17T03:56:25;36.90;26.00
34815;DHT22;21030;53.912;15.214;2022-10-17T03:58:58;36.80;26.10
34815;DHT22;21030;53.912;15.214;2022-10-17T04:01:28;36.90;26.10
34815;DHT22;21030;53.912;15.214;2022-10-17T04:03:56;36.90;26.10
34815;DHT22;21030;53.912;15.214;2022-10-17T04:06:25;36.70;26.10
34815;DHT22;21030;53.912;15.214;2022-10-17T04:08:53;36.80;26.20
34815;DHT22;21030;53.912;15.214;2022-10-17T04:11:22;36.80;26.10
34815;DHT22;21030;53.912;15.214;2022-10-17T04:13:55;36.90;26.10
34815;DHT22;21030;53.912;15.214;2022-10-17T04:16:25;36.60;26.40
34815;DHT22;21030;53.912;15.214;2022-10-17T04:18:56;36.50;26.60
34815;DHT22;21030;53.912;15.214;2022-10-17T04:21:27;36.50;26.60
34815;DHT22;21030;53.912;15.214;2022-10-17T04:23:57;36.60;26.60
34815;DHT22;21030;53.912;15.214;2022-10-17T04:26:26;36.50;26.30
34815;DHT22;21030;53.912;15.214;2022-10-17T04:28:55;36.70;26.30
34815;DHT22;21030;53.912;15.214;2022-10-17T04:31:25;36.90;26.20
34815;DHT22;21030;53.912;15.214;2022-10-17T04:33:53;36.90;26.10
34815;DHT22;21030;53.912;15.214;2022-10-17T04:36:22;37.00;26.20
34815;DHT22;21030;53.912;15.214;2022-10-17T04:38:50;37.10;26.20
34815;DHT22;21030;53.912;15.214;2022-10-17T04:41:19;37.10;26.20
34815;DHT22;21030;53.912;15.214;2022-10-17T04:43:49;37.10;26.20
34815;DHT22;21030;53.912;15.214;2022-10-17T04:46:18;37.10;26.10
34815;DHT22;21030;53.912;15.214;2022-10-17T04:48:47;37.10;26.10
34815;DHT22;21030;53.912;15.214;2022-10-17T04:51:17;36.70;26.20
34815;DHT22;21030;53.912;15.214;2022-10-17T04:53:50;36.60;26.50
34815;DHT22;21030;53.912;15.214;2022-10-17T04:56:22;36.80;26.50
34815;DHT22;21030;53.912;15.214;2022-10-17T04:58:50;36.90;26.40
34815;DHT22;21030;53.912;15.214;2022-10-17T05:01:20;36.80;26.50
34815;DHT22;21030;53.912;15.214;2022-10-17T05:03:50;36.90;26.50
34815;DHT22;21030;53.912;15.214;2022-10-17T05:06:22;37.10;26.30
34815;DHT22;21030;53.912;15.214;2022-10-17T05:08:51;37.20;26.10
34815;DHT22;21030;53.912;15.214;2022-10-17T05:11:24;37.30;26.00
34815;DHT22;21030;53.912;15.214;2022-10-17T05:13:55;37.30;26.20
34815;DHT22;21030;53.912;15.214;2022-10-17T05:16:28;37.40;26.10
34815;DHT22;21030;53.912;15.214;2022-10-17T05:18:58;37.50;26.20
34815;DHT22;21030;53.912;15.214;2022-10-17T05:21:28;37.10;26.20
34815;DHT22;21030;53.912;15.214;2022-10-17T05:24:08;37.40;26.40
34815;DHT22;21030;53.912;15.214;2022-10-17T05:26:37;37.50;26.10
34815;DHT22;21030;53.912;15.214;2022-10-17T05:29:06;37.70;26.00
34815;DHT22;21030;53.912;15.214;2022-10-17T05:31:37;37.80;26.00
34815;DHT22;21030;53.912;15.214;2022-10-17T05:34:06;37.80;26.00
34815;DHT22;21030;53.912;15.214;2022-10-17T05:36:40;37.30;26.00
34815;DHT22;21030;53.912;15.214;2022-10-17T05:39:08;36.90;26.40
34815;DHT22;21030;53.912;15.214;2022-10-17T05:41:35;37.10;26.50
34815;DHT22;21030;53.912;15.214;2022-10-17T05:44:02;37.20;26.30
34815;DHT22;21030;53.912;15.214;2022-10-17T05:46:34;37.40;26.30
34815;DHT22;21030;53.912;15.214;2022-10-17T05:49:05;37.60;26.20
34815;DHT22;21030;53.912;15.214;2022-10-17T05:51:53;37.70;26.10
34815;DHT22;21030;53.912;15.214;2022-10-17T05:54:21;37.80;26.00
34815;DHT22;21030;53.912;15.214;2022-10-17T05:56:54;37.70;26.00
34815;DHT22;21030;53.912;15.214;2022-10-17T05:59:24;37.80;26.10
34815;DHT22;21030;53.912;15.214;2022-10-17T06:01:53;38.00;26.00
34815;DHT22;21030;53.912;15.214;2022-10-17T06:04:22;38.00;25.90
34815;DHT22;21030;53.912;15.214;2022-10-17T06:06:51;38.10;25.90
34815;DHT22;21030;53.912;15.214;2022-10-17T06:09:19;38.20;25.90
34815;DHT22;21030;53.912;15.214;2022-10-17T06:11:47;38.20;25.80
34815;DHT22;21030;53.912;15.214;2022-10-17T06:14:16;38.20;25.70
34815;DHT22;21030;53.912;15.214;2022-10-17T06:16:44;38.30;25.60
34815;DHT22;21030;53.912;15.214;2022-10-17T06:19:12;38.40;25.60
34815;DHT22;21030;53.912;15.214;2022-10-17T06:21:43;38.30;25.60
34815;DHT22;21030;53.912;15.214;2022-10-17T06:24:10;38.50;26.20
34815;DHT22;21030;53.912;15.214;2022-10-17T06:26:38;38.40;25.50
34815;DHT22;21030;53.912;15.214;2022-10-17T06:29:07;38.40;25.70
34815;DHT22;21030;53.912;15.214;2022-10-17T06:31:37;38.50;25.70
34815;DHT22;21030;53.912;15.214;2022-10-17T06:34:05;38.50;25.70
34815;DHT22;21030;53.912;15.214;2022-10-17T06:36:33;38.50;25.70
34815;DHT22;21030;53.912;15.214;2022-10-17T06:39:01;38.40;25.80
34815;DHT22;21030;53.912;15.214;2022-10-17T06:41:29;38.30;25.80
34815;DHT22;21030;53.912;15.214;2022-10-17T06:44:00;38.40;25.80
34815;DHT22;21030;53.912;15.214;2022-10-17T06:46:34;38.40;25.90
34815;DHT22;21030;53.912;15.214;2022-10-17T06:49:03;38.30;25.90
34815;DHT22;21030;53.912;15.214;2022-10-17T06:51:34;38.50;25.90
34815;DHT22;21030;53.912;15.214;2022-10-17T06:54:03;38.80;25.90
34815;DHT22;21030;53.912;15.214;2022-10-17T06:56:31;39.30;25.70
34815;DHT22;21030;53.912;15.214;2022-10-17T06:58:58;39.50;25.50
34815;DHT22;21030;53.912;15.214;2022-10-17T07:01:26;39.50;25.40
34815;DHT22;21030;53.912;15.214;2022-10-17T07:03:56;39.60;25.10
34815;DHT22;21030;53.912;15.214;2022-10-17T07:06:24;39.60;24.90
34815;DHT22;21030;53.912;15.214;2022-10-17T07:08:52;39.70;24.80
34815;DHT22;21030;53.912;15.214;2022-10-17T07:11:22;39.70;24.80
34815;DHT22;21030;53.912;15.214;2022-10-17T07:13:49;39.80;25.00
34815;DHT22;21030;53.912;15.214;2022-10-17T07:16:18;39.90;24.90
34815;DHT22;21030;53.912;15.214;2022-10-17T07:18:51;40.00;25.00
34815;DHT22;21030;53.912;15.214;2022-10-17T07:21:20;40.10;25.10
34815;DHT22;21030;53.912;15.214;2022-10-17T07:23:48;40.40;25.00
34815;DHT22;21030;53.912;15.214;2022-10-17T07:26:18;40.60;24.60
34815;DHT22;21030;53.912;15.214;2022-10-17T07:28:50;40.70;24.70
34815;DHT22;21030;53.912;15.214;2022-10-17T07:31:21;40.70;24.40
34815;DHT22;21030;53.912;15.214;2022-10-17T07:33:50;40.80;24.70
34815;DHT22;21030;53.912;15.214;2022-10-17T07:36:18;41.00;24.60
34815;DHT22;21030;53.912;15.214;2022-10-17T07:38:47;41.30;24.20
34815;DHT22;21030;53.912;15.214;2022-10-17T07:41:16;41.60;24.00
34815;DHT22;21030;53.912;15.214;2022-10-17T07:43:49;41.90;23.80
34815;DHT22;21030;53.912;15.214;2022-10-17T07:46:18;42.20;23.80
34815;DHT22;21030;53.912;15.214;2022-10-17T07:48:48;42.30;23.70
34815;DHT22;21030;53.912;15.214;2022-10-17T07:51:16;42.80;23.20
34815;DHT22;21030;53.912;15.214;2022-10-17T07:53:48;43.30;22.90
34815;DHT22;21030;53.912;15.214;2022-10-17T07:56:16;43.60;22.50
34815;DHT22;21030;53.912;15.214;2022-10-17T07:58:44;44.10;22.70
34815;DHT22;21030;53.912;15.214;2022-10-17T08:01:15;44.20;21.90
34815;DHT22;21030;53.912;15.214;2022-10-17T08:03:45;44.50;21.60
34815;DHT22;21030;53.912;15.214;2022-10-17T08:06:17;44.90;21.30
34815;DHT22;21030;53.912;15.214;2022-10-17T08:08:44;44.90;21.50
34815;DHT22;21030;53.912;15.214;2022-10-17T08:11:14;44.90;21.30
34815;DHT22;21030;53.912;15.214;2022-10-17T08:13:43;44.90;21.20
34815;DHT22;21030;53.912;15.214;2022-10-17T08:16:12;44.80;21.10
34815;DHT22;21030;53.912;15.214;2022-10-17T08:18:41;44.90;21.20
34815;DHT22;21030;53.912;15.214;2022-10-17T08:21:10;44.80;21.00
34815;DHT22;21030;53.912;15.214;2022-10-17T08:23:39;44.90;21.10
34815;DHT22;21030;53.912;15.214;2022-10-17T08:26:10;44.50;21.40
34815;DHT22;21030;53.912;15.214;2022-10-17T08:28:41;44.40;21.20
34815;DHT22;21030;53.912;15.214;2022-10-17T08:31:11;44.30;21.40
34815;DHT22;21030;53.912;15.214;2022-10-17T08:33:46;44.30;21.50
34815;DHT22;21030;53.912;15.214;2022-10-17T08:36:16;44.30;21.70
34815;DHT22;21030;53.912;15.214;2022-10-17T08:38:45;44.30;21.70
34815;DHT22;21030;53.912;15.214;2022-10-17T08:47:25;42.40;23.50
34815;DHT22;21030;53.912;15.214;2022-10-17T08:49:57;42.20;23.30
34815;DHT22;21030;53.912;15.214;2022-10-17T08:52:51;41.70;23.50
34815;DHT22;21030;53.912;15.214;2022-10-17T08:55:37;41.70;23.80
34815;DHT22;21030;53.912;15.214;2022-10-17T08:58:24;41.70;23.70
34815;DHT22;21030;53.912;15.214;2022-10-17T09:12:21;41.90;24.30
34815;DHT22;21030;53.912;15.214;2022-10-17T09:17:44;42.60;23.70
34815;DHT22;21030;53.912;15.214;2022-10-17T09:20:24;43.20;23.30
34815;DHT22;21030;53.912;15.214;2022-10-17T09:23:20;43.60;23.30
34815;DHT22;21030;53.912;15.214;2022-10-17T09:25:54;44.00;22.90
34815;DHT22;21030;53.912;15.214;2022-10-17T09:28:33;44.00;22.90
34815;DHT22;21030;53.912;15.214;2022-10-17T09:31:25;44.10;22.90
34815;DHT22;21030;53.912;15.214;2022-10-17T09:33:54;44.10;22.80
34815;DHT22;21030;53.912;15.214;2022-10-17T09:36:36;44.20;22.80
34815;DHT22;21030;53.912;15.214;2022-10-17T09:39:17;44.20;22.70
34815;DHT22;21030;53.912;15.214;2022-10-17T09:41:55;44.70;22.60
34815;DHT22;21030;53.912;15.214;2022-10-17T09:44:36;44.90;22.30
34815;DHT22;21030;53.912;15.214;2022-10-17T09:49:52;44.90;22.40
34815;DHT22;21030;53.912;15.214;2022-10-17T09:52:33;44.90;22.50
34815;DHT22;21030;53.912;15.214;2022-10-17T09:55:20;44.90;22.60
34815;DHT22;21030;53.912;15.214;2022-10-17T09:58:00;44.40;22.70
34815;DHT22;21030;53.912;15.214;2022-10-17T10:00:41;44.90;22.90
34815;DHT22;21030;53.912;15.214;2022-10-17T10:05:40;45.50;22.60
34815;DHT22;21030;53.912;15.214;2022-10-17T10:08:16;45.80;22.40
34815;DHT22;21030;53.912;15.214;2022-10-17T10:10:45;46.30;22.30
34815;DHT22;21030;53.912;15.214;2022-10-17T10:13:16;46.60;22.10
34815;DHT22;21030;53.912;15.214;2022-10-17T10:15:48;46.40;21.80
34815;DHT22;21030;53.912;15.214;2022-10-17T10:18:34;46.40;22.10
34815;DHT22;21030;53.912;15.214;2022-10-17T10:21:05;46.60;22.10
34815;DHT22;21030;53.912;15.214;2022-10-17T10:23:35;46.20;22.10
34815;DHT22;21030;53.912;15.214;2022-10-17T10:28:54;46.20;22.30
34815;DHT22;21030;53.912;15.214;2022-10-17T10:31:35;46.10;22.50
34815;DHT22;21030;53.912;15.214;2022-10-17T10:34:27;45.80;22.60
34815;DHT22;21030;53.912;15.214;2022-10-17T10:37:03;45.90;22.80
34815;DHT22;21030;53.912;15.214;2022-10-17T10:39:48;45.70;23.00
34815;DHT22;21030;53.912;15.214;2022-10-17T10:42:24;46.00;22.90
34815;DHT22;21030;53.912;15.214;2022-10-17T10:45:16;45.80;22.90
34815;DHT22;21030;53.912;15.214;2022-10-17T10:48:26;45.70;23.00
34815;DHT22;21030;53.912;15.214;2022-10-17T10:50:58;45.40;23.20
34815;DHT22;21030;53.912;15.214;2022-10-17T10:53:42;45.00;24.10
34815;DHT22;21030;53.912;15.214;2022-10-17T10:56:22;45.10;23.70
34815;DHT22;21030;53.912;15.214;2022-10-17T10:59:09;45.10;23.60
34815;DHT22;21030;53.912;15.214;2022-10-17T11:04:53;45.00;23.50
34815;DHT22;21030;53.912;15.214;2022-10-17T11:07:57;44.70;23.70
34815;DHT22;21030;53.912;15.214;2022-10-17T11:13:29;43.80;24.20
34815;DHT22;21030;53.912;15.214;2022-10-17T11:16:17;43.70;24.30
34815;DHT22;21030;53.912;15.214;2022-10-17T11:21:46;43.40;24.50
34815;DHT22;21030;53.912;15.214;2022-10-17T11:24:26;43.60;24.60
34815;DHT22;21030;53.912;15.214;2022-10-17T11:27:03;43.70;24.50
34815;DHT22;21030;53.912;15.214;2022-10-17T11:29:39;43.70;24.10
34815;DHT22;21030;53.912;15.214;2022-10-17T11:33:08;43.80;24.40
34815;DHT22;21030;53.912;15.214;2022-10-17T11:35:31;43.00;24.70
34815;DHT22;21030;53.912;15.214;2022-10-17T11:38:17;41.80;25.60
34815;DHT22;21030;53.912;15.214;2022-10-17T11:40:50;40.70;26.80
34815;DHT22;21030;53.912;15.214;2022-10-17T11:46:27;40.80;27.30
34815;DHT22;21030;53.912;15.214;2022-10-17T11:49:15;41.10;26.90
34815;DHT22;21030;53.912;15.214;2022-10-17T11:51:59;40.60;27.10
34815;DHT22;21030;53.912;15.214;2022-10-17T11:54:38;41.00;27.00
34815;DHT22;21030;53.912;15.214;2022-10-17T11:57:36;41.00;27.00
34815;DHT22;21030;53.912;15.214;2022-10-17T12:00:35;41.50;27.00
34815;DHT22;21030;53.912;15.214;2022-10-17T12:06:38;42.70;25.70
34815;DHT22;21030;53.912;15.214;2022-10-17T12:12:01;42.80;25.60
34815;DHT22;21030;53.912;15.214;2022-10-17T12:19:49;43.50;25.20
34815;DHT22;21030;53.912;15.214;2022-10-17T12:22:24;44.10;25.00
34815;DHT22;21030;53.912;15.214;2022-10-17T12:25:02;43.80;24.70
34815;DHT22;21030;53.912;15.214;2022-10-17T12:27:40;43.30;25.00
34815;DHT22;21030;53.912;15.214;2022-10-17T12:30:20;42.80;25.30
34815;DHT22;21030;53.912;15.214;2022-10-17T12:33:02;42.40;25.80
34815;DHT22;21030;53.912;15.214;2022-10-17T12:35:36;42.30;25.90
34815;DHT22;21030;53.912;15.214;2022-10-17T12:40:51;41.60;26.40
34815;DHT22;21030;53.912;15.214;2022-10-17T12:45:59;42.00;26.70
34815;DHT22;21030;53.912;15.214;2022-10-17T12:51:13;41.20;26.70
34815;DHT22;21030;53.912;15.214;2022-10-17T12:54:14;40.90;27.10
34815;DHT22;21030;53.912;15.214;2022-10-17T12:56:49;41.10;27.30
34815;DHT22;21030;53.912;15.214;2022-10-17T12:59:26;41.00;27.20
34815;DHT22;21030;53.912;15.214;2022-10-17T13:01:59;41.00;27.60
34815;DHT22;21030;53.912;15.214;2022-10-17T13:04:30;41.10;27.10
34815;DHT22;21030;53.912;15.214;2022-10-17T13:06:59;41.20;27.00
34815;DHT22;21030;53.912;15.214;2022-10-17T13:09:30;41.40;27.00
34815;DHT22;21030;53.912;15.214;2022-10-17T13:12:04;41.70;27.00
34815;DHT22;21030;53.912;15.214;2022-10-17T13:14:40;41.50;26.90
34815;DHT22;21030;53.912;15.214;2022-10-17T13:17:28;41.50;27.00
34815;DHT22;21030;53.912;15.214;2022-10-17T13:20:00;41.60;26.90
34815;DHT22;21030;53.912;15.214;2022-10-17T13:22:31;41.80;27.00
34815;DHT22;21030;53.912;15.214;2022-10-17T13:25:29;41.90;26.80
34815;DHT22;21030;53.912;15.214;2022-10-17T13:28:09;42.00;26.80
34815;DHT22;21030;53.912;15.214;2022-10-17T13:30:46;41.60;26.80
34815;DHT22;21030;53.912;15.214;2022-10-17T13:36:15;41.00;27.60
34815;DHT22;21030;53.912;15.214;2022-10-17T13:38:46;41.30;27.50
34815;DHT22;21030;53.912;15.214;2022-10-17T13:45:36;40.90;27.50
34815;DHT22;21030;53.912;15.214;2022-10-17T13:48:14;41.40;27.50
34815;DHT22;21030;53.912;15.214;2022-10-17T13:50:47;41.70;27.10
34815;DHT22;21030;53.912;15.214;2022-10-17T13:53:19;42.10;26.80
34815;DHT22;21030;53.912;15.214;2022-10-17T13:58:46;41.70;26.50
34815;DHT22;21030;53.912;15.214;2022-10-17T14:01:16;41.50;27.10
34815;DHT22;21030;53.912;15.214;2022-10-17T14:03:46;41.20;27.20
34815;DHT22;21030;53.912;15.214;2022-10-17T14:06:29;41.10;27.80
34815;DHT22;21030;53.912;15.214;2022-10-17T14:08:59;40.80;27.80
34815;DHT22;21030;53.912;15.214;2022-10-17T14:11:41;41.00;27.90
34815;DHT22;21030;53.912;15.214;2022-10-17T14:14:29;41.10;27.60
34815;DHT22;21030;53.912;15.214;2022-10-17T14:17:24;40.70;27.70
34815;DHT22;21030;53.912;15.214;2022-10-17T14:24:26;40.10;28.70
34815;DHT22;21030;53.912;15.214;2022-10-17T14:26:57;39.90;28.80
34815;DHT22;21030;53.912;15.214;2022-10-17T14:29:29;39.40;29.20
34815;DHT22;21030;53.912;15.214;2022-10-17T14:32:04;39.60;29.50
34815;DHT22;21030;53.912;15.214;2022-10-17T14:34:37;39.70;29.30
34815;DHT22;21030;53.912;15.214;2022-10-17T16:22:54;37.00;32.70
34815;DHT22;21030;53.912;15.214;2022-10-17T16:25:27;37.00;32.40
34815;DHT22;21030;53.912;15.214;2022-10-17T16:27:56;36.90;32.90
34815;DHT22;21030;53.912;15.214;2022-10-17T16:30:26;36.80;32.60
34815;DHT22;21030;53.912;15.214;2022-10-17T16:32:54;36.80;32.80
34815;DHT22;21030;53.912;15.214;2022-10-17T16:35:27;36.90;32.70
34815;DHT22;21030;53.912;15.214;2022-10-17T16:38:02;36.60;32.80
34815;DHT22;21030;53.912;15.214;2022-10-17T16:40:29;36.80;32.70
34815;DHT22;21030;53.912;15.214;2022-10-17T16:42:56;36.70;32.90
34815;DHT22;21030;53.912;15.214;2022-10-17T16:45:24;36.50;32.90
34815;DHT22;21030;53.912;15.214;2022-10-17T16:47:51;37.00;32.70
34815;DHT22;21030;53.912;15.214;2022-10-17T16:50:19;37.40;32.20
34815;DHT22;21030;53.912;15.214;2022-10-17T16:52:46;37.40;32.00
34815;DHT22;21030;53.912;15.214;2022-10-17T16:55:13;37.20;32.10
34815;DHT22;21030;53.912;15.214;2022-10-17T16:57:44;37.80;31.90
34815;DHT22;21030;53.912;15.214;2022-10-17T17:00:12;37.60;31.80
34815;DHT22;21030;53.912;15.214;2022-10-17T17:02:40;37.50;32.00
34815;DHT22;21030;53.912;15.214;2022-10-17T17:05:07;37.60;31.90
34815;DHT22;21030;53.912;15.214;2022-10-17T17:07:34;37.80;31.60
34815;DHT22;21030;53.912;15.214;2022-10-17T17:10:02;37.10;32.20
34815;DHT22;21030;53.912;15.214;2022-10-17T17:12:32;37.10;32.50
34815;DHT22;21030;53.912;15.214;2022-10-17T17:14:59;37.20;32.60
34815;DHT22;21030;53.912;15.214;2022-10-17T17:17:26;37.60;32.30
34815;DHT22;21030;53.912;15.214;2022-10-17T17:20:13;37.60;32.10
34815;DHT22;21030;53.912;15.214;2022-10-17T17:22:40;37.50;32.30
34815;DHT22;21030;53.912;15.214;2022-10-17T17:25:08;37.70;32.30
34815;DHT22;21030;53.912;15.214;2022-10-17T17:27:35;37.50;32.20
34815;DHT22;21030;53.912;15.214;2022-10-17T17:30:02;37.20;32.20
34815;DHT22;21030;53.912;15.214;2022-10-17T17:32:31;37.00;32.60
34815;DHT22;21030;53.912;15.214;2022-10-17T17:34:58;37.20;32.70
34815;DHT22;21030;53.912;15.214;2022-10-17T17:37:26;36.70;33.10
34815;DHT22;21030;53.912;15.214;2022-10-17T17:39:53;36.90;32.90
34815;DHT22;21030;53.912;15.214;2022-10-17T17:42:21;37.50;32.50
34815;DHT22;21030;53.912;15.214;2022-10-17T17:44:48;37.20;32.20
34815;DHT22;21030;53.912;15.214;2022-10-17T17:47:15;37.00;32.80
34815;DHT22;21030;53.912;15.214;2022-10-17T17:49:43;37.10;32.80
34815;DHT22;21030;53.912;15.214;2022-10-17T17:52:10;36.90;32.80
34815;DHT22;21030;53.912;15.214;2022-10-17T17:54:37;36.90;33.00
34815;DHT22;21030;53.912;15.214;2022-10-17T17:57:06;37.10;32.50
34815;DHT22;21030;53.912;15.214;2022-10-17T17:59:34;36.90;33.10
34815;DHT22;21030;53.912;15.214;2022-10-17T18:02:01;36.70;32.70
34815;DHT22;21030;53.912;15.214;2022-10-17T18:04:29;36.40;33.20
34815;DHT22;21030;53.912;15.214;2022-10-17T18:06:57;36.00;34.00
34815;DHT22;21030;53.912;15.214;2022-10-17T18:09:26;36.30;33.70
34815;DHT22;21030;53.912;15.214;2022-10-17T18:11:55;36.00;33.70
34815;DHT22;21030;53.912;15.214;2022-10-17T18:14:22;36.20;33.50
34815;DHT22;21030;53.912;15.214;2022-10-17T18:16:50;36.20;33.60
34815;DHT22;21030;53.912;15.214;2022-10-17T18:19:19;35.80;33.90
34815;DHT22;21030;53.912;15.214;2022-10-17T18:21:48;35.80;35.00
34815;DHT22;21030;53.912;15.214;2022-10-17T18:24:15;35.60;34.10
34815;DHT22;21030;53.912;15.214;2022-10-17T18:26:45;35.10;34.40
34815;DHT22;21030;53.912;15.214;2022-10-17T18:29:12;34.60;35.50
34815;DHT22;21030;53.912;15.214;2022-10-17T18:31:39;35.30;35.00
34815;DHT22;21030;53.912;15.214;2022-10-17T18:34:07;35.30;34.40
34815;DHT22;21030;53.912;15.214;2022-10-17T18:36:35;35.20;34.50
34815;DHT22;21030;53.912;15.214;2022-10-17T18:39:04;35.50;34.30
34815;DHT22;21030;53.912;15.214;2022-10-17T18:41:32;35.70;34.30
34815;DHT22;21030;53.912;15.214;2022-10-17T18:44:01;35.70;33.80
34815;DHT22;21030;53.912;15.214;2022-10-17T18:46:32;35.80;33.70
34815;DHT22;21030;53.912;15.214;2022-10-17T18:49:02;35.90;34.00
34815;DHT22;21030;53.912;15.214;2022-10-17T18:51:31;36.30;33.30
34815;DHT22;21030;53.912;15.214;2022-10-17T18:53:58;36.50;33.10
34815;DHT22;21030;53.912;15.214;2022-10-17T18:56:25;36.40;32.80
34815;DHT22;21030;53.912;15.214;2022-10-17T18:58:53;35.80;33.50
34815;DHT22;21030;53.912;15.214;2022-10-17T19:01:23;35.50;34.00
34815;DHT22;21030;53.912;15.214;2022-10-17T19:03:54;35.40;34.30
34815;DHT22;21030;53.912;15.214;2022-10-17T19:06:27;35.50;34.00
34815;DHT22;21030;53.912;15.214;2022-10-17T19:09:01;35.60;34.00
34815;DHT22;21030;53.912;15.214;2022-10-17T19:11:31;36.40;33.30
34815;DHT22;21030;53.912;15.214;2022-10-17T19:14:02;36.10;32.70
34815;DHT22;21030;53.912;15.214;2022-10-17T19:16:35;36.10;33.10
34815;DHT22;21030;53.912;15.214;2022-10-17T19:19:14;36.40;33.20
34815;DHT22;21030;53.912;15.214;2022-10-17T19:21:44;36.50;32.80
34815;DHT22;21030;53.912;15.214;2022-10-17T19:24:21;36.30;32.70